Time;durP1;ratioP1;P1;durP2;ratioP2;P2;SDS_P1;SDS_P2;PMS_P1;PMS_P2;Temp;Humidity;BMP_temperature;BMP_pressure;BME280_temperature;BME280_humidity;BME280_pressure;Samples;Min_cycle;Max_cycle;Signal;HPM_P1;HPM_P2
2023/11/27 00:01:09;;;;;;;;;;;;;;;-0.80;79.55;99190.78;5094936;28;19920;-72
2023/11/27 00:03:38;;;;;;;;;;;;;;;-0.81;79.77;99190.72;5094619;28;19920;-72
2023/11/27 00:06:07;;;;;;;;;;;;;;;-0.80;79.53;99189.94;5094783;28;19920;-72
2023/11/27 00:08:36;;;;;;;;;;;;;;;-0.80;79.58;99184.91;5094489;28;19920;-72
2023/11/27 00:11:06;;;;;;;;;;;;;;;-0.75;80.00;99184.28;5094427;28;19927;-72
2023/11/27 00:13:34;;;;;;;;;;;;;;;-0.63;79.60;99183.00;5094461;28;19965;-71
2023/11/27 00:16:03;;;;;;;;;;;;;;;-0.58;79.74;99182.38;5094192;28;19921;-72
2023/11/27 00:18:33;;;;;;;;;;;;;;;-0.56;79.92;99175.75;5094230;28;20370;-72
2023/11/27 00:21:02;;;;;;;;;;;;;;;-0.46;79.81;99169.41;5094662;28;20078;-72
2023/11/27 00:23:31;;;;;;;;;;;;;;;-0.41;79.40;99176.28;5094516;28;20350;-72
2023/11/27 00:26:00;;;;;;;;;;;;;;;-0.38;79.98;99183.03;5094158;28;20373;-72
2023/11/27 00:28:29;;;;;;;;;;;;;;;-0.40;79.46;99172.97;5094518;28;19969;-72
2023/11/27 00:30:57;;;;;;;;;;;;;;;-0.42;79.58;99183.75;5094193;28;19920;-72
2023/11/27 00:33:26;;;;;;;;;;;;;;;-0.41;79.84;99181.31;5094396;28;20270;-72
2023/11/27 00:35:55;;;;;;;;;;;;;;;-0.42;79.87;99179.59;5094063;28;19990;-72
2023/11/27 00:38:24;;;;;;;;;;;;;;;-0.46;80.02;99182.81;5094192;28;20349;-72
2023/11/27 00:40:52;;;;;;;;;;;;;;;-0.53;80.09;99180.88;5093984;28;20015;-72
2023/11/27 00:43:21;;;;;;;;;;;;;;;-0.56;80.00;99180.78;5093169;28;20101;-72
2023/11/27 00:45:50;;;;;;;;;;;;;;;-0.56;79.87;99184.91;5094693;28;19920;-72
2023/11/27 00:48:18;;;;;;;;;;;;;;;-0.55;79.71;99184.97;5093667;28;20334;-72
2023/11/27 00:50:46;;;;;;;;;;;;;;;-0.58;79.77;99186.53;5093980;28;19927;-72
2023/11/27 00:53:17;;;;;;;;;;;;;;;-0.62;80.13;99183.03;5092847;28;19920;-72
2023/11/27 00:55:48;;;;;;;;;;;;;;;-0.64;80.25;99176.28;5092812;28;19927;-72
2023/11/27 00:58:16;;;;;;;;;;;;;;;-0.65;80.36;99185.47;5094234;28;19920;-72
2023/11/27 01:00:45;;;;;;;;;;;;;;;-0.66;81.25;99178.75;5094001;28;20113;-72
2023/11/27 01:03:14;;;;;;;;;;;;;;;-0.65;81.40;99175.44;5093892;28;19955;-72
2023/11/27 01:05:43;;;;;;;;;;;;;;;-0.64;81.08;99169.63;5092637;28;20358;-72
2023/11/27 01:08:13;;;;;;;;;;;;;;;-0.62;81.24;99159.66;5094091;28;20026;-72
2023/11/27 01:10:43;;;;;;;;;;;;;;;-0.64;81.62;99159.59;5093996;28;19924;-72
2023/11/27 01:13:12;;;;;;;;;;;;;;;-0.63;81.77;99157.94;5093857;28;19931;-72
2023/11/27 01:15:41;;;;;;;;;;;;;;;-0.62;81.79;99163.00;5093642;28;20354;-72
2023/11/27 01:18:10;;;;;;;;;;;;;;;-0.64;81.88;99162.09;5093692;28;19920;-72
2023/11/27 01:20:40;;;;;;;;;;;;;;;-0.65;82.07;99155.41;5093729;28;19920;-72
2023/11/27 01:23:09;;;;;;;;;;;;;;;-0.63;82.52;99153.81;5093186;28;19923;-72
2023/11/27 01:25:37;;;;;;;;;;;;;;;-0.62;82.47;99163.00;5093686;28;19920;-72
2023/11/27 01:28:08;;;;;;;;;;;;;;;-0.60;82.71;99158.88;5093869;28;19920;-72
2023/11/27 01:30:37;;;;;;;;;;;;;;;-0.55;82.92;99152.38;5095294;28;19935;-72
2023/11/27 01:33:05;;;;;;;;;;;;;;;-0.50;83.44;99160.91;5096217;28;19927;-72
2023/11/27 01:35:34;;;;;;;;;;;;;;;-0.47;83.03;99161.03;5096485;28;20384;-72
2023/11/27 01:38:02;;;;;;;;;;;;;;;-0.40;83.42;99152.91;5096130;28;20355;-72
2023/11/27 01:40:31;;;;;;;;;;;;;;;-0.32;83.52;99156.53;5096187;28;19920;-77
2023/11/27 01:43:00;;;;;;;;;;;;;;;-0.30;83.16;99159.94;5097637;28;19942;-77
2023/11/27 01:45:32;;;;;;;;;;;;;;;-0.31;83.56;99149.88;5096074;28;19920;-76
2023/11/27 01:48:00;;;;;;;;;;;;;;;-0.29;83.80;99145.78;5097109;28;19920;-76
2023/11/27 01:50:29;;;;;;;;;;;;;;;-0.29;83.40;99141.59;5097153;28;19920;-76
2023/11/27 01:52:58;;;;;;;;;;;;;;;-0.33;83.40;99144.81;5097095;28;19973;-77
2023/11/27 01:55:26;;;;;;;;;;;;;;;-0.33;84.11;99134.78;5095775;28;19919;-77
2023/11/27 01:57:55;;;;;;;;;;;;;;;-0.36;83.75;99129.66;5096391;28;20255;-77
2023/11/27 02:00:24;;;;;;;;;;;;;;;-0.36;84.09;99128.81;5095983;28;20265;-77
2023/11/27 02:02:56;;;;;;;;;;;;;;;-0.35;83.91;99126.34;5097286;28;20026;-77
2023/11/27 02:05:24;;;;;;;;;;;;;;;-0.33;84.53;99123.88;5095776;28;20003;-77
2023/11/27 02:07:53;;;;;;;;;;;;;;;-0.29;84.08;99126.53;5096889;28;19920;-76
2023/11/27 02:14:00;;;;;;;;;;;;;;;-0.19;84.12;99123.53;5097194;28;19916;-77
2023/11/27 02:16:28;;;;;;;;;;;;;;;-0.11;84.21;99122.16;5095509;28;19920;-76
2023/11/27 02:18:58;;;;;;;;;;;;;;;-0.05;83.94;99117.31;5078929;28;19927;-77
2023/11/27 02:21:27;;;;;;;;;;;;;;;0.03;84.86;99119.22;5095878;28;20093;-77
2023/11/27 02:23:57;;;;;;;;;;;;;;;0.06;84.65;99129.34;5096986;28;19924;-77
2023/11/27 02:26:26;;;;;;;;;;;;;;;0.11;84.01;99126.19;5096960;28;20282;-77
2023/11/27 02:28:54;;;;;;;;;;;;;;;0.15;84.09;99125.47;5095682;28;19920;-76
2023/11/27 02:31:27;;;;;;;;;;;;;;;0.16;84.37;99131.34;5096359;28;19920;-76
2023/11/27 02:33:56;;;;;;;;;;;;;;;0.11;84.45;99127.84;5096836;28;19924;-76
2023/11/27 02:36:26;;;;;;;;;;;;;;;0.08;83.93;99122.72;5097365;28;20014;-76
2023/11/27 02:38:54;;;;;;;;;;;;;;;0.05;84.48;99117.63;5096745;28;19920;-76
2023/11/27 02:41:25;;;;;;;;;;;;;;;0.03;84.54;99114.19;5095098;28;19923;-77
2023/11/27 02:43:54;;;;;;;;;;;;;;;-0.02;84.38;99107.38;5096742;28;19970;-76
2023/11/27 02:46:22;;;;;;;;;;;;;;;-0.05;84.85;99109.78;5095278;28;20255;-76
2023/11/27 02:48:51;;;;;;;;;;;;;;;-0.05;84.90;99117.31;5095472;28;19927;-76
2023/11/27 02:51:20;;;;;;;;;;;;;;;-0.02;84.95;99112.41;5095022;28;20011;-76
2023/11/27 02:53:48;;;;;;;;;;;;;;;-0.03;85.10;99110.72;5096442;28;20327;-76
2023/11/27 02:56:18;;;;;;;;;;;;;;;-0.04;85.18;99103.13;5095067;28;19926;-77
2023/11/27 02:58:48;;;;;;;;;;;;;;;-0.11;84.70;99099.56;5096050;28;20015;-77
2023/11/27 03:01:17;;;;;;;;;;;;;;;-0.17;85.26;99096.84;5096100;28;19965;-77
2023/11/27 03:03:45;;;;;;;;;;;;;;;-0.18;85.12;99100.19;5096509;28;20328;-77
2023/11/27 03:06:14;;;;;;;;;;;;;;;-0.22;85.62;99093.38;5096032;28;19923;-76
2023/11/27 03:08:43;;;;;;;;;;;;;;;-0.25;85.69;99088.25;5096169;28;19920;-76
2023/11/27 03:11:11;;;;;;;;;;;;;;;-0.26;86.27;99086.53;5095884;28;19924;-76
2023/11/27 03:13:40;;;;;;;;;;;;;;;-0.26;86.39;99079.03;5096284;28;19919;-76
2023/11/27 03:16:10;;;;;;;;;;;;;;;-0.24;85.92;99072.41;5094986;28;19926;-76
2023/11/27 03:18:39;;;;;;;;;;;;;;;-0.23;86.53;99076.63;5096824;28;19965;-76
2023/11/27 03:21:08;;;;;;;;;;;;;;;-0.18;86.72;99075.13;5096122;28;19920;-77
2023/11/27 03:23:36;;;;;;;;;;;;;;;-0.11;86.45;99077.00;5094663;28;19927;-76
2023/11/27 03:26:05;;;;;;;;;;;;;;;-0.03;86.27;99080.63;5095427;28;20374;-76
2023/11/27 03:28:35;;;;;;;;;;;;;;;-0.03;86.74;99075.59;5095611;28;19928;-77
2023/11/27 03:31:04;;;;;;;;;;;;;;;-0.02;87.00;99076.44;5094452;28;19924;-77
2023/11/27 03:33:34;;;;;;;;;;;;;;;-0.03;87.07;99075.59;5095876;28;20300;-72
2023/11/27 03:36:04;;;;;;;;;;;;;;;-0.07;86.95;99068.78;5094635;28;19927;-72
2023/11/27 03:38:33;;;;;;;;;;;;;;;-0.07;87.64;99068.78;5095329;28;19927;-72
2023/11/27 03:41:03;;;;;;;;;;;;;;;-0.05;87.52;99067.16;5095227;28;20350;-72
2023/11/27 03:43:32;;;;;;;;;;;;;;;-0.08;87.29;99057.06;5061382;28;19920;-72
2023/11/27 03:46:00;;;;;;;;;;;;;;;-0.09;87.42;99050.31;5094015;28;20022;-73
2023/11/27 03:48:29;;;;;;;;;;;;;;;-0.10;87.77;99053.63;5095370;28;19966;-73
2023/11/27 03:50:59;;;;;;;;;;;;;;;-0.13;87.74;99053.56;5095025;28;20362;-72
2023/11/27 03:53:28;;;;;;;;;;;;;;;-0.14;87.67;99056.84;5093129;28;20007;-73
2023/11/27 03:55:57;;;;;;;;;;;;;;;-0.15;87.88;99051.81;5093699;28;19927;-73
2023/11/27 03:58:25;;;;;;;;;;;;;;;-0.08;88.33;99047.03;5094813;28;20285;-72
2023/11/27 04:00:55;;;;;;;;;;;;;;;-0.09;88.37;99049.47;5094797;28;20014;-71
2023/11/27 04:03:24;;;;;;;;;;;;;;;-0.11;87.92;99054.44;5095026;28;19920;-71
2023/11/27 04:05:52;;;;;;;;;;;;;;;-0.09;88.81;99049.47;5095074;28;19946;-71
2023/11/27 04:08:22;;;;;;;;;;;;;;;-0.03;88.58;99055.53;5093866;28;20369;-71
2023/11/27 04:10:50;;;;;;;;;;;;;;;0.07;88.99;99066.72;5093807;28;19969;-71
2023/11/27 04:13:19;;;;;;;;;;;;;;;0.16;88.90;99056.09;5094825;28;19919;-71
2023/11/27 04:15:49;;;;;;;;;;;;;;;0.22;88.98;99047.06;5076712;28;19977;-71
2023/11/27 04:18:19;;;;;;;;;;;;;;;0.24;89.18;99044.63;5094546;28;19920;-71
2023/11/27 04:20:48;;;;;;;;;;;;;;;0.22;88.56;99036.19;5094795;28;20384;-71
2023/11/27 04:23:17;;;;;;;;;;;;;;;0.17;88.99;99037.72;5094653;28;20350;-71
2023/11/27 04:25:47;;;;;;;;;;;;;;;0.18;89.23;99034.41;5094696;28;19927;-71
2023/11/27 04:28:16;;;;;;;;;;;;;;;0.17;88.77;99038.56;5094298;28;19920;-71
2023/11/27 04:30:46;;;;;;;;;;;;;;;0.17;88.74;99037.72;5093017;28;19920;-71
2023/11/27 04:33:15;;;;;;;;;;;;;;;0.19;89.31;99038.63;5094245;28;20357;-72
2023/11/27 04:35:43;;;;;;;;;;;;;;;0.27;88.84;99032.16;5094113;28;19927;-72
2023/11/27 04:38:12;;;;;;;;;;;;;;;0.33;88.62;99039.88;5094006;28;19920;-72
2023/11/27 04:40:40;;;;;;;;;;;;;;;0.34;88.82;99037.41;5094079;28;19927;-73
2023/11/27 04:43:10;;;;;;;;;;;;;;;0.34;88.54;99032.38;5094080;28;19920;-73
2023/11/27 04:45:39;;;;;;;;;;;;;;;0.40;89.19;99041.75;5076069;28;19923;-77
2023/11/27 04:48:08;;;;;;;;;;;;;;;0.42;88.82;99040.13;5093895;28;20003;-77
2023/11/27 04:50:36;;;;;;;;;;;;;;;0.45;89.28;99047.75;5094056;28;20389;-77
2023/11/27 04:53:05;;;;;;;;;;;;;;;0.48;89.18;99045.34;5094012;28;20409;-76
2023/11/27 04:55:34;;;;;;;;;;;;;;;0.50;88.77;99048.75;5094305;28;19942;-77
2023/11/27 04:58:03;;;;;;;;;;;;;;;0.52;88.44;99050.50;5093907;28;19920;-75
2023/11/27 05:00:33;;;;;;;;;;;;;;;0.55;88.69;99057.25;5093903;28;19920;-76
2023/11/27 05:03:02;;;;;;;;;;;;;;;0.50;88.96;99048.75;5094741;28;20263;-76
2023/11/27 05:05:30;;;;;;;;;;;;;;;0.50;88.64;99048.75;5098199;28;20362;-77
2023/11/27 05:07:59;;;;;;;;;;;;;;;0.51;88.27;99050.44;5098683;28;20357;-77
2023/11/27 05:10:28;;;;;;;;;;;;;;;0.55;89.09;99037.19;5098196;28;19959;-77
2023/11/27 05:12:57;;;;;;;;;;;;;;;0.51;88.42;99037.88;5079951;28;19920;-77
2023/11/27 05:15:25;;;;;;;;;;;;;;;0.50;88.05;99036.19;5098360;28;19924;-77
2023/11/27 05:17:55;;;;;;;;;;;;;;;0.51;88.08;99027.84;5098056;28;20354;-77
2023/11/27 05:20:24;;;;;;;;;;;;;;;0.48;87.93;99030.28;5098581;28;20052;-77
2023/11/27 05:22:53;;;;;;;;;;;;;;;0.42;88.36;99025.06;5097827;28;19924;-77
2023/11/27 05:25:21;;;;;;;;;;;;;;;0.42;88.12;99020.06;5096857;28;19920;-77
2023/11/27 05:27:50;;;;;;;;;;;;;;;0.38;88.14;99023.28;5096811;28;20373;-77
2023/11/27 05:30:21;;;;;;;;;;;;;;;0.33;88.28;99022.31;5097795;28;19923;-77
2023/11/27 05:32:51;;;;;;;;;;;;;;;0.33;88.21;99009.78;5096616;28;19942;-77
2023/11/27 05:35:22;;;;;;;;;;;;;;;0.38;88.20;99013.25;5097920;28;20043;-77
2023/11/27 05:37:50;;;;;;;;;;;;;;;0.47;88.27;99008.50;5096385;28;20374;-77
2023/11/27 05:40:20;;;;;;;;;;;;;;;0.49;88.26;99009.38;5097568;28;19927;-77
2023/11/27 05:42:49;;;;;;;;;;;;;;;0.52;88.19;99019.50;5096569;28;19920;-77
2023/11/27 05:45:18;;;;;;;;;;;;;;;0.52;88.21;99022.88;5097755;28;19927;-77
2023/11/27 05:47:49;;;;;;;;;;;;;;;0.51;88.06;99027.84;5096181;28;19974;-77
2023/11/27 05:50:20;;;;;;;;;;;;;;;0.52;87.97;99032.06;5096321;28;20014;-77
2023/11/27 05:52:50;;;;;;;;;;;;;;;0.50;87.92;99023.66;5096250;28;19959;-77
2023/11/27 05:55:18;;;;;;;;;;;;;;;0.52;87.79;99030.41;5097438;28;20350;-77
2023/11/27 05:57:47;;;;;;;;;;;;;;;0.55;88.24;99025.44;5097378;28;19981;-77
2023/11/27 06:00:16;;;;;;;;;;;;;;;0.48;87.82;99023.59;5097648;28;19930;-77
2023/11/27 06:02:44;;;;;;;;;;;;;;;0.47;88.22;99033.59;5097554;28;19920;-77
2023/11/27 06:05:15;;;;;;;;;;;;;;;0.44;88.60;99039.38;5098184;28;20014;-76
2023/11/27 06:07:45;;;;;;;;;;;;;;;0.47;87.97;99033.59;5098102;28;19951;-77
2023/11/27 06:10:16;;;;;;;;;;;;;;;0.51;88.60;99032.84;5098285;28;20272;-77
2023/11/27 06:12:45;;;;;;;;;;;;;;;0.50;87.82;99038.72;5097617;28;19926;-77
2023/11/27 06:15:14;;;;;;;;;;;;;;;0.53;88.04;99031.25;5096264;28;19920;-77
2023/11/27 06:17:43;;;;;;;;;;;;;;;0.52;88.07;99032.94;5096728;28;19924;-77
2023/11/27 06:20:12;;;;;;;;;;;;;;;0.55;88.08;99035.50;5098207;28;20023;-77
2023/11/27 06:22:40;;;;;;;;;;;;;;;0.56;88.53;99028.81;5096791;28;19920;-77
2023/11/27 06:25:09;;;;;;;;;;;;;;;0.55;88.57;99032.16;5097015;28;19920;-77
2023/11/27 06:27:39;;;;;;;;;;;;;;;0.57;88.47;99030.53;5096903;28;19920;-77
2023/11/27 06:30:09;;;;;;;;;;;;;;;0.59;88.41;99036.44;5096708;28;19926;-78
2023/11/27 06:32:40;;;;;;;;;;;;;;;0.65;88.68;99044.13;5096831;28;19926;-77
2023/11/27 06:35:11;;;;;;;;;;;;;;;0.71;89.15;99043.47;5096902;28;20011;-77
2023/11/27 06:37:41;;;;;;;;;;;;;;;0.77;88.78;99041.97;5096828;28;20006;-72
2023/11/27 06:40:09;;;;;;;;;;;;;;;0.76;88.54;99037.75;5096218;28;20378;-72
2023/11/27 06:42:39;;;;;;;;;;;;;;;0.75;88.53;99035.19;5096327;28;19920;-72
2023/11/27 06:45:08;;;;;;;;;;;;;;;0.70;88.81;99037.59;5096347;28;20006;-72
2023/11/27 06:47:37;;;;;;;;;;;;;;;0.69;88.68;99030.88;5095737;28;19954;-77
2023/11/27 06:50:06;;;;;;;;;;;;;;;0.66;88.60;99033.28;5096147;28;20015;-74
2023/11/27 06:52:34;;;;;;;;;;;;;;;0.66;88.93;99033.28;5095184;28;19920;-75
2023/11/27 06:55:02;;;;;;;;;;;;;;;0.63;88.73;99031.56;5096239;28;20022;-76
2023/11/27 06:57:31;;;;;;;;;;;;;;;0.61;88.76;99037.34;5095983;28;20401;-76
2023/11/27 07:00:01;;;;;;;;;;;;;;;0.60;88.91;99030.63;5095723;28;19920;-78
2023/11/27 07:02:30;;;;;;;;;;;;;;;0.61;89.10;99032.31;5095938;28;20263;-76
2023/11/27 07:04:59;;;;;;;;;;;;;;;0.62;89.64;99034.03;5092827;28;19920;-74
2023/11/27 07:07:27;;;;;;;;;;;;;;;0.64;89.54;99035.78;5109400;28;20035;-75
2023/11/27 07:09:56;;;;;;;;;;;;;;;0.66;89.58;99036.66;5113035;28;19931;-72
2023/11/27 07:12:25;;;;;;;;;;;;;;;0.63;89.00;99035.72;5108361;28;19926;-77
2023/11/27 07:14:53;;;;;;;;;;;;;;;0.60;89.14;99033.13;5112666;28;20458;-77
2023/11/27 07:17:23;;;;;;;;;;;;;;;0.64;88.94;99032.41;5102355;28;20370;-73
2023/11/27 07:19:52;;;;;;;;;;;;;;;0.67;89.06;99032.50;5095533;28;19963;-72
2023/11/27 07:22:21;;;;;;;;;;;;;;;0.67;89.36;99037.53;5109426;28;19959;-72
2023/11/27 07:24:50;;;;;;;;;;;;;;;0.65;89.07;99024.06;5114426;28;20039;-75
2023/11/27 07:27:19;;;;;;;;;;;;;;;0.67;89.19;99032.50;5115058;28;20323;-76
2023/11/27 07:29:47;;;;;;;;;;;;;;;0.69;89.70;99023.34;5108611;28;19966;-74
2023/11/27 07:32:16;;;;;;;;;;;;;;;0.69;89.48;99025.84;5095328;28;19986;-75
2023/11/27 07:34:46;;;;;;;;;;;;;;;0.70;89.46;99026.72;5094229;28;19951;-77
2023/11/27 07:37:15;;;;;;;;;;;;;;;0.70;89.28;99016.66;5095536;28;19924;-77
2023/11/27 07:39:44;;;;;;;;;;;;;;;0.69;89.27;99015.81;5097505;28;19976;-72
2023/11/27 07:42:15;;;;;;;;;;;;;;;0.77;89.12;99018.53;5114699;27;19981;-77
2023/11/27 07:44:44;;;;;;;;;;;;;;;0.87;89.84;99016.28;5114868;28;19953;-76
2023/11/27 07:47:12;;;;;;;;;;;;;;;0.89;89.79;99017.19;5115531;28;19927;-76
2023/11/27 07:49:41;;;;;;;;;;;;;;;0.89;89.30;99018.88;5111312;28;20396;-73
2023/11/27 07:52:11;;;;;;;;;;;;;;;0.84;90.01;99006.16;5115288;28;19920;-76
2023/11/27 07:54:41;;;;;;;;;;;;;;;0.80;89.02;99014.44;5115266;28;19926;-73
2023/11/27 07:57:10;;;;;;;;;;;;;;;0.79;88.94;99011.88;5114611;28;19931;-74
2023/11/27 07:59:38;;;;;;;;;;;;;;;0.80;89.92;99014.44;5111686;28;20323;-73
2023/11/27 08:02:07;;;;;;;;;;;;;;;0.80;89.18;99018.59;5093783;28;20006;-77
2023/11/27 08:04:35;;;;;;;;;;;;;;;0.85;89.23;99007.03;5095134;28;19985;-78
2023/11/27 08:07:06;;;;;;;;;;;;;;;0.95;89.53;99009.81;5099284;28;19926;-77
2023/11/27 08:09:37;;;;;;;;;;;;;;;1.05;89.64;99016.78;5115383;28;19920;-73
2023/11/27 08:12:05;;;;;;;;;;;;;;;1.03;89.92;99010.84;5115222;28;19955;-73
2023/11/27 08:14:35;;;;;;;;;;;;;;;1.04;89.74;99015.09;5114888;28;19926;-78
2023/11/27 08:17:05;;;;;;;;;;;;;;;1.08;89.26;99011.81;5103323;28;20370;-80
2023/11/27 08:19:34;;;;;;;;;;;;;;;1.03;89.55;99015.88;5096726;28;19955;-74
2023/11/27 08:22:04;;;;;;;;;;;;;;;0.93;89.51;99024.00;5114801;28;19958;-74
2023/11/27 08:24:34;;;;;;;;;;;;;;;0.88;89.01;99018.00;5113499;28;19920;-76
2023/11/27 08:27:04;;;;;;;;;;;;;;;0.88;89.12;99010.47;5077575;28;19927;-74
2023/11/27 08:29:33;;;;;;;;;;;;;;;0.91;89.83;99015.56;5105837;28;19927;-74
2023/11/27 08:32:01;;;;;;;;;;;;;;;0.99;89.28;99018.28;5111485;28;19953;-78
2023/11/27 08:34:30;;;;;;;;;;;;;;;0.97;89.56;99019.91;5113624;28;19926;-80
2023/11/27 08:37:04;;;;;;;;;;;;;;;0.93;88.89;99010.59;5114559;28;19927;-78
2023/11/27 08:39:33;;;;;;;;;;;;;;;1.03;89.67;99010.84;5112499;28;19920;-74
2023/11/27 08:42:05;;;;;;;;;;;;;;;1.08;89.48;99008.50;5115003;28;19980;-80
2023/11/27 08:44:34;;;;;;;;;;;;;;;1.10;89.24;99010.22;5116921;28;19947;-81
2023/11/27 08:47:03;;;;;;;;;;;;;;;1.12;89.39;99008.59;5129550;28;20350;-81
2023/11/27 08:49:33;;;;;;;;;;;;;;;1.13;89.54;99000.22;5131705;28;19916;-82
2023/11/27 08:52:02;;;;;;;;;;;;;;;1.07;89.26;99005.13;5128634;28;19926;-80
2023/11/27 08:54:32;;;;;;;;;;;;;;;1.04;88.60;99010.06;5119727;28;19927;-77
2023/11/27 08:57:01;;;;;;;;;;;;;;;1.08;89.40;99005.97;5114483;28;19962;-77
2023/11/27 08:59:31;;;;;;;;;;;;;;;1.10;89.48;99007.72;5100271;28;19920;-81
2023/11/27 09:02:00;;;;;;;;;;;;;;;1.14;89.54;99006.97;5097403;28;19920;-78
2023/11/27 09:04:29;;;;;;;;;;;;;;;1.21;88.95;99008.81;5095123;28;19920;-79
2023/11/27 09:06:57;;;;;;;;;;;;;;;1.27;89.47;99014.00;5096147;28;20397;-80
2023/11/27 09:09:26;;;;;;;;;;;;;;;1.27;89.43;99008.97;5103067;28;19919;-76
2023/11/27 09:11:55;;;;;;;;;;;;;;;1.24;89.27;99008.91;5094144;28;19966;-77
2023/11/27 09:14:24;;;;;;;;;;;;;;;1.30;89.09;99011.56;5093625;28;20285;-78
2023/11/27 09:16:54;;;;;;;;;;;;;;;1.33;89.29;99010.78;5076052;28;19920;-78
2023/11/27 09:19:26;;;;;;;;;;;;;;;1.29;88.73;99007.38;5094717;28;20421;-76
2023/11/27 09:21:59;;;;;;;;;;;;;;;1.34;89.04;99000.75;5113743;28;19920;-79
2023/11/27 09:24:28;;;;;;;;;;;;;;;1.47;88.36;98996.88;5113309;28;19972;-77
2023/11/27 09:27:01;;;;;;;;;;;;;;;1.57;89.28;98993.78;5107149;28;19927;-81
2023/11/27 09:29:39;;;;;;;;;;;;;;;1.66;88.78;98998.16;5092136;28;19956;-77
2023/11/27 09:32:09;;;;;;;;;;;;;;;1.69;88.40;98989.03;5074233;28;20400;-78
2023/11/27 09:34:38;;;;;;;;;;;;;;;1.61;88.47;98984.66;5092306;28;19969;-76
2023/11/27 09:37:07;;;;;;;;;;;;;;;1.64;88.95;98974.66;5092963;28;19934;-78
2023/11/27 09:39:37;;;;;;;;;;;;;;;1.69;88.43;98978.97;5093557;28;19964;-77
2023/11/27 09:42:05;;;;;;;;;;;;;;;1.72;88.91;98975.69;5095900;28;19927;-77
2023/11/27 09:44:35;;;;;;;;;;;;;;;1.71;88.10;98971.47;5096615;28;19920;-78
2023/11/27 09:47:05;;;;;;;;;;;;;;;1.73;88.40;98964.78;5121717;27;19919;-79
2023/11/27 09:49:38;;;;;;;;;;;;;;;1.78;87.81;98958.19;5117591;28;19926;-78
2023/11/27 09:52:12;;;;;;;;;;;;;;;1.84;88.30;98955.84;5119093;28;19926;-78
2023/11/27 09:54:45;;;;;;;;;;;;;;;1.85;88.22;98955.88;5072915;28;19920;-78
2023/11/27 09:57:16;;;;;;;;;;;;;;;1.84;88.05;98956.69;5103520;28;19926;-78
2023/11/27 09:59:45;;;;;;;;;;;;;;;1.78;87.69;98950.66;5120799;28;19942;-78
2023/11/27 10:02:13;;;;;;;;;;;;;;;1.77;88.00;98951.50;5101085;28;19924;-77
2023/11/27 10:04:44;;;;;;;;;;;;;;;1.66;88.10;98947.88;5109191;28;19927;-77
2023/11/27 10:07:14;;;;;;;;;;;;;;;1.59;87.49;98939.34;5099835;28;19919;-78
2023/11/27 10:09:44;;;;;;;;;;;;;;;1.60;87.54;98942.72;5117624;28;19951;-78
2023/11/27 10:12:13;;;;;;;;;;;;;;;1.60;88.26;98937.69;5114656;28;19920;-77
2023/11/27 10:14:42;;;;;;;;;;;;;;;1.61;87.57;98936.88;5104258;28;20021;-76
2023/11/27 10:17:12;;;;;;;;;;;;;;;1.64;88.13;98931.91;5115218;28;20373;-75
2023/11/27 10:19:41;;;;;;;;;;;;;;;1.70;87.98;98924.50;5110351;28;19977;-75
2023/11/27 10:22:12;;;;;;;;;;;;;;;1.78;87.70;98923.00;5075835;28;19986;-74
2023/11/27 10:24:41;;;;;;;;;;;;;;;1.80;87.53;98916.34;5090399;28;19920;-73
2023/11/27 10:27:10;;;;;;;;;;;;;;;1.85;87.58;98914.75;5097715;28;19924;-75
2023/11/27 10:29:39;;;;;;;;;;;;;;;1.93;87.64;98908.22;5096742;28;20316;-76
2023/11/27 10:32:10;;;;;;;;;;;;;;;1.96;88.53;98908.31;5092270;28;19927;-72
2023/11/27 10:34:40;;;;;;;;;;;;;;;1.95;88.03;98906.59;5084726;28;20325;-74
2023/11/27 10:37:09;;;;;;;;;;;;;;;1.93;87.53;98910.75;5076183;28;19970;-73
2023/11/27 10:39:41;;;;;;;;;;;;;;;1.92;87.60;98904.03;5095516;28;19927;-75
2023/11/27 10:42:11;;;;;;;;;;;;;;;1.93;87.47;98899.03;5096419;28;19920;-73
2023/11/27 10:44:44;;;;;;;;;;;;;;;1.90;88.13;98893.94;5096266;28;20379;-74
2023/11/27 10:47:13;;;;;;;;;;;;;;;1.94;87.81;98883.09;5096253;28;20022;-74
2023/11/27 10:49:41;;;;;;;;;;;;;;;1.99;87.44;98891.59;5094904;28;19920;-74
2023/11/27 10:52:11;;;;;;;;;;;;;;;2.09;87.97;98880.03;5096121;28;19924;-72
2023/11/27 10:54:42;;;;;;;;;;;;;;;2.20;87.49;98876.09;5096380;28;20263;-73
2023/11/27 10:57:11;;;;;;;;;;;;;;;2.25;87.67;98874.50;5096518;28;20027;-77
2023/11/27 10:59:44;;;;;;;;;;;;;;;2.41;88.05;98868.94;5095082;28;19924;-73
2023/11/27 11:02:13;;;;;;;;;;;;;;;2.40;87.37;98876.47;5095175;28;20346;-75
2023/11/27 11:04:48;;;;;;;;;;;;;;;2.33;88.08;98862.88;5095953;28;19962;-75
2023/11/27 11:07:19;;;;;;;;;;;;;;;2.32;88.18;98867.91;5095945;28;19927;-76
2023/11/27 11:09:50;;;;;;;;;;;;;;;2.36;87.97;98860.44;5089149;28;19963;-75
2023/11/27 11:12:23;;;;;;;;;;;;;;;2.37;88.02;98862.16;5100305;28;19920;-75
2023/11/27 11:14:53;;;;;;;;;;;;;;;2.29;87.78;98863.66;5116794;28;19943;-74
2023/11/27 11:17:27;;;;;;;;;;;;;;;2.25;87.25;98861.91;5113378;28;19924;-73
2023/11/27 11:20:01;;;;;;;;;;;;;;;2.27;87.52;98855.25;5116649;28;19919;-74
2023/11/27 11:22:37;;;;;;;;;;;;;;;2.31;87.43;98861.16;5106189;28;19920;-76
2023/11/27 11:25:13;;;;;;;;;;;;;;;2.34;88.06;98857.06;5115799;28;20273;-74
2023/11/27 11:27:46;;;;;;;;;;;;;;;2.34;88.03;98856.19;5115610;28;19969;-74
2023/11/27 11:30:15;;;;;;;;;;;;;;;2.27;87.36;98850.22;5114814;28;19920;-75
2023/11/27 11:32:44;;;;;;;;;;;;;;;2.28;88.04;98846.84;5100341;28;20372;-75
2023/11/27 11:35:14;;;;;;;;;;;;;;;2.26;87.82;98847.63;5095280;28;20426;-75
2023/11/27 11:37:47;;;;;;;;;;;;;;;2.28;87.79;98835.97;5095523;28;19924;-74
2023/11/27 11:40:18;;;;;;;;;;;;;;;2.23;87.44;98833.34;5095183;28;20370;-74
2023/11/27 11:42:49;;;;;;;;;;;;;;;2.26;87.32;98828.38;5094057;28;19920;-74
2023/11/27 11:45:24;;;;;;;;;;;;;;;2.28;88.49;98823.38;5094353;28;19920;-74
2023/11/27 11:47:57;;;;;;;;;;;;;;;2.24;88.10;98817.44;5094960;28;20006;-74
2023/11/27 11:50:30;;;;;;;;;;;;;;;2.23;88.35;98815.72;5095078;28;20267;-74
2023/11/27 11:53:03;;;;;;;;;;;;;;;2.20;87.97;98813.16;5093048;28;20306;-75
2023/11/27 11:55:35;;;;;;;;;;;;;;;2.22;88.35;98811.53;5095235;28;20035;-74
2023/11/27 11:58:04;;;;;;;;;;;;;;;2.25;88.56;98811.59;5102463;28;19920;-74
2023/11/27 12:00:43;;;;;;;;;;;;;;;2.25;88.93;98801.50;5098109;28;19920;-73
2023/11/27 12:03:16;;;;;;;;;;;;;;;2.25;88.86;98806.53;5074607;28;20267;-73
2023/11/27 12:05:49;;;;;;;;;;;;;;;2.23;88.91;98794.75;5092865;28;20359;-73
2023/11/27 12:08:19;;;;;;;;;;;;;;;2.23;88.51;98793.06;5093575;28;20018;-73
2023/11/27 12:10:51;;;;;;;;;;;;;;;2.25;88.82;98786.41;5094726;28;19923;-73
2023/11/27 12:13:21;;;;;;;;;;;;;;;2.28;89.40;98783.94;5094374;28;19959;-73
2023/11/27 12:15:50;;;;;;;;;;;;;;;2.28;89.05;98781.41;5094939;28;19919;-73
2023/11/27 12:18:19;;;;;;;;;;;;;;;2.29;89.59;98778.09;5092459;28;19927;-74
2023/11/27 12:20:49;;;;;;;;;;;;;;;2.28;89.21;98773.84;5095113;28;19924;-74
2023/11/27 12:23:18;;;;;;;;;;;;;;;2.28;89.41;98776.38;5093145;28;19920;-73
2023/11/27 12:25:47;;;;;;;;;;;;;;;2.31;89.48;98776.44;5092650;28;19919;-74
2023/11/27 12:28:19;;;;;;;;;;;;;;;2.35;89.67;98765.59;5092988;28;19920;-75
2023/11/27 12:30:49;;;;;;;;;;;;;;;2.34;89.74;98771.47;5093232;28;19927;-75
2023/11/27 12:33:19;;;;;;;;;;;;;;;2.28;89.67;98771.34;5094605;28;19920;-75
2023/11/27 12:35:50;;;;;;;;;;;;;;;2.26;89.53;98762.06;5092127;28;20014;-75
2023/11/27 12:38:19;;;;;;;;;;;;;;;2.27;89.59;98753.72;5113601;28;19926;-74
2023/11/27 12:40:47;;;;;;;;;;;;;;;2.30;89.63;98754.63;5114786;28;19927;-74
2023/11/27 12:43:18;;;;;;;;;;;;;;;2.36;89.68;98749.69;5114808;28;19920;-75
2023/11/27 12:45:57;;;;;;;;;;;;;;;2.39;90.11;98744.69;5112777;28;20327;-75
2023/11/27 12:48:27;;;;;;;;;;;;;;;2.43;89.37;98740.53;5073700;28;19920;-74
2023/11/27 12:50:56;;;;;;;;;;;;;;;2.42;90.23;98739.72;5072658;28;19921;-74
2023/11/27 12:53:24;;;;;;;;;;;;;;;2.42;89.93;98739.72;5089780;28;19920;-74
2023/11/27 12:55:54;;;;;;;;;;;;;;;2.45;89.84;98737.22;5074955;28;20293;-74
2023/11/27 12:58:25;;;;;;;;;;;;;;;2.46;90.19;98723.81;5113835;28;19923;-74
2023/11/27 13:00:56;;;;;;;;;;;;;;;2.49;89.90;98726.41;5114514;28;19992;-74
2023/11/27 13:03:25;;;;;;;;;;;;;;;2.44;90.00;98728.00;5113116;28;19920;-74
2023/11/27 13:05:59;;;;;;;;;;;;;;;2.39;90.12;98723.69;5111510;28;20392;-75
2023/11/27 13:08:32;;;;;;;;;;;;;;;2.37;89.68;98726.22;5092643;28;20254;-74
2023/11/27 13:11:04;;;;;;;;;;;;;;;2.31;89.62;98716.03;5094105;28;19920;-73